Time;durP1;ratioP1;P1;durP2;ratioP2;P2;SDS_P1;SDS_P2;PMS_P1;PMS_P2;Temp;Humidity;BMP_temperature;BMP_pressure;BME280_temperature;BME280_humidity;BME280_pressure;Samples;Min_cycle;Max_cycle;Signal;HPM_P1;HPM_P2
2022/04/15 00:00:06;;;;;;;8.33;6.60;;;;;;;17.87;54.22;99702.91;4105925;28;20290;-59
2022/04/15 00:02:09;;;;;;;8.07;6.20;;;;;;;17.82;54.07;99706.22;4107457;28;20234;-60
2022/04/15 00:04:11;;;;;;;10.23;6.10;;;;;;;17.94;53.91;99693.78;4108579;28;20703;-59
2022/04/15 00:06:12;;;;;;;9.93;6.73;;;;;;;17.50;54.45;99740.97;4107973;28;20329;-60
2022/04/15 00:08:14;;;;;;;9.67;6.30;;;;;;;17.90;53.72;99692.53;4108726;28;20601;-60
2022/04/15 00:10:16;;;;;;;8.80;6.07;;;;;;;17.80;53.91;99701.06;4108963;28;20943;-58
2022/04/15 00:12:27;;;;;;;9.53;6.27;;;;;;;17.88;53.63;99694.63;4111147;28;20258;-60
2022/04/15 00:14:29;;;;;;;9.27;6.07;;;;;;;17.74;53.81;99704.56;4107014;28;20281;-60
2022/04/15 00:16:30;;;;;;;8.20;5.70;;;;;;;17.70;53.79;99713.25;4110672;28;20219;-60
2022/04/15 00:18:34;;;;;;;7.87;6.00;;;;;;;17.72;54.06;99711.19;4111880;28;20318;-61
2022/04/15 00:20:35;;;;;;;7.20;5.00;;;;;;;17.82;53.85;99707.06;4111653;28;20289;-60
2022/04/15 00:22:37;;;;;;;6.73;5.50;;;;;;;17.79;54.24;99707.47;4108716;28;20261;-59
2022/04/15 00:24:38;;;;;;;7.83;5.97;;;;;;;17.53;54.64;99735.19;4109157;28;20264;-59
2022/04/15 00:26:40;;;;;;;7.17;5.57;;;;;;;17.54;54.95;99744.88;4108058;28;20275;-60
2022/04/15 00:28:42;;;;;;;9.10;5.87;;;;;;;17.75;54.11;99703.53;4108266;28;20254;-60
2022/04/15 00:30:44;;;;;;;6.77;5.33;;;;;;;17.82;53.69;99706.22;4111141;28;20252;-59
2022/04/15 00:32:45;;;;;;;9.03;5.90;;;;;;;17.72;53.45;99709.34;4107357;28;20289;-60
2022/04/15 00:34:47;;;;;;;6.57;5.50;;;;;;;17.77;54.10;99720.28;4109480;28;20341;-59
2022/04/15 00:36:49;;;;;;;10.07;5.87;;;;;;;17.35;54.46;99743.84;4108181;28;20326;-60
2022/04/15 00:38:51;;;;;;;7.47;5.40;;;;;;;17.31;54.64;99760.56;4110314;28;20262;-61
2022/04/15 00:40:52;;;;;;;9.57;5.47;;;;;;;17.38;54.44;99735.38;4110339;28;20253;-61
2022/04/15 00:42:54;;;;;;;9.17;5.90;;;;;;;17.48;54.31;99722.34;4107662;28;20337;-60
2022/04/15 00:44:57;;;;;;;7.93;5.93;;;;;;;17.48;54.36;99726.91;4109748;28;20282;-60
2022/04/15 00:46:58;;;;;;;10.07;5.40;;;;;;;17.21;54.91;99759.06;4106450;28;20258;-60
2022/04/15 00:49:00;;;;;;;7.50;5.53;;;;;;;17.03;54.52;99756.13;4110470;28;20317;-59
2022/04/15 00:51:03;;;;;;;6.73;5.10;;;;;;;17.31;54.13;99737.19;4110774;28;20254;-60
2022/04/15 00:53:09;;;;;;;8.37;5.80;;;;;;;17.46;54.10;99729.81;4109788;28;20594;-60
2022/04/15 00:55:13;;;;;;;6.97;5.47;;;;;;;17.49;53.92;99720.47;4111198;28;20230;-60
2022/04/15 00:57:16;;;;;;;7.77;5.03;;;;;;;17.56;53.82;99713.25;4107794;28;20695;-60
2022/04/15 00:59:20;;;;;;;6.33;4.93;;;;;;;17.43;53.99;99724.81;4110375;28;20495;-60
2022/04/15 01:01:22;;;;;;;7.30;5.83;;;;;;;17.45;54.11;99717.38;4107985;28;20650;-60
2022/04/15 01:03:24;;;;;;;6.87;5.00;;;;;;;17.47;53.88;99719.88;4108739;28;20254;-59
2022/04/15 01:05:27;;;;;;;7.87;5.17;;;;;;;17.69;53.34;99698.16;4106701;28;20570;-60
2022/04/15 01:07:33;;;;;;;7.23;5.23;;;;;;;17.76;53.33;99698.97;4110906;28;20234;-59
2022/04/15 01:09:42;;;;;;;6.97;4.97;;;;;;;17.76;53.38;99696.28;4108239;28;20263;-60
2022/04/15 01:11:47;;;;;;;7.10;5.07;;;;;;;17.37;54.19;99738.25;4109362;28;20685;-60
2022/04/15 01:13:50;;;;;;;6.00;4.50;;;;;;;17.26;54.42;99748.53;4107341;28;20692;-59
2022/04/15 01:15:55;;;;;;;7.57;5.30;;;;;;;17.42;53.89;99739.28;4107861;28;20343;-60
2022/04/15 01:17:58;;;;;;;9.57;5.40;;;;;;;17.43;54.08;99727.50;4106224;28;20274;-60
2022/04/15 01:20:01;;;;;;;8.00;5.50;;;;;;;17.29;54.25;99745.47;4110108;28;20270;-60
2022/04/15 01:22:04;;;;;;;5.87;4.47;;;;;;;17.08;54.78;99770.59;4109861;28;20250;-60
2022/04/15 01:24:08;;;;;;;7.27;5.00;;;;;;;16.75;55.33;99791.94;4105546;28;20683;-59
2022/04/15 01:26:10;;;;;;;6.93;4.93;;;;;;;17.02;55.12;99774.06;4107861;28;20269;-60
2022/04/15 01:28:16;;;;;;;7.10;5.17;;;;;;;17.03;54.60;99766.88;4106508;28;20238;-60
2022/04/15 01:30:20;;;;;;;6.93;5.23;;;;;;;16.84;55.42;99789.91;4110572;28;20230;-61
2022/04/15 01:32:22;;;;;;;8.63;5.20;;;;;;;16.66;55.82;99801.19;4107122;28;20270;-60
2022/04/15 01:34:23;;;;;;;7.87;5.77;;;;;;;16.74;55.61;99784.91;4109599;28;20671;-60
2022/04/15 01:36:26;;;;;;;7.83;5.70;;;;;;;16.85;54.97;99778.97;4110515;28;20246;-60
2022/04/15 01:38:28;;;;;;;7.87;5.13;;;;;;;16.70;55.22;99800.59;4106273;28;20261;-60
2022/04/15 01:40:29;;;;;;;6.63;5.40;;;;;;;16.81;55.10;99785.78;4110521;28;20242;-60
2022/04/15 01:42:32;;;;;;;6.87;5.33;;;;;;;16.88;54.88;99775.88;4106040;28;20739;-60
2022/04/15 01:44:34;;;;;;;7.70;5.70;;;;;;;16.91;54.69;99777.34;4107156;28;20226;-60
2022/04/15 01:46:36;;;;;;;7.30;5.73;;;;;;;16.91;54.60;99767.44;4110694;28;20273;-59
2022/04/15 01:48:37;;;;;;;7.83;6.27;;;;;;;16.52;55.51;99801.09;4107250;28;20318;-60
2022/04/15 01:50:39;;;;;;;6.63;5.60;;;;;;;16.49;55.54;99806.03;4110371;28;20258;-60
2022/04/15 01:52:40;;;;;;;8.83;5.70;;;;;;;16.52;55.34;99800.28;4109173;28;20273;-60
2022/04/15 01:54:42;;;;;;;7.90;6.00;;;;;;;16.17;56.09;99829.72;4108881;28;20582;-60
2022/04/15 01:56:44;;;;;;;8.53;5.50;;;;;;;16.39;55.38;99800.97;4103352;28;20254;-60
2022/04/15 01:58:45;;;;;;;8.23;5.27;;;;;;;16.17;55.73;99818.97;4108778;28;20266;-59
2022/04/15 02:00:47;;;;;;;11.00;6.40;;;;;;;16.07;56.09;99819.31;4124292;28;20264;-61
2022/04/15 02:02:49;;;;;;;6.90;5.63;;;;;;;16.41;55.40;99790.88;4105637;28;20309;-60
2022/04/15 02:04:51;;;;;;;7.50;5.97;;;;;;;16.21;55.62;99811.38;4107854;28;20246;-60
2022/04/15 02:06:53;;;;;;;6.40;5.80;;;;;;;16.45;55.03;99781.41;4102078;28;20273;-60
2022/04/15 02:08:55;;;;;;;7.47;5.90;;;;;;;16.50;55.15;99780.84;4110568;28;20262;-57
2022/04/15 02:10:56;;;;;;;8.20;5.63;;;;;;;16.67;54.36;99770.59;4107648;28;21014;-60
2022/04/15 02:12:58;;;;;;;6.17;5.53;;;;;;;16.29;55.13;99805.88;4104705;28;20658;-60
2022/04/15 02:15:01;;;;;;;8.23;6.23;;;;;;;16.32;54.79;99797.44;4104641;28;20250;-59
2022/04/15 02:17:03;;;;;;;8.20;6.23;;;;;;;16.47;54.74;99790.13;4108182;28;20250;-59
2022/04/15 02:19:04;;;;;;;7.20;5.83;;;;;;;16.60;54.47;99777.81;4109275;28;20270;-59
2022/04/15 02:21:06;;;;;;;7.57;5.73;;;;;;;15.88;56.04;99844.94;4109586;28;20237;-60
2022/04/15 02:23:08;;;;;;;8.70;5.97;;;;;;;16.26;55.14;99790.16;4106035;28;20346;-59
2022/04/15 02:25:09;;;;;;;7.30;6.07;;;;;;;16.68;54.07;99758.84;4108108;28;20237;-60
2022/04/15 02:27:11;;;;;;;7.20;5.57;;;;;;;16.14;55.29;99820.19;4106523;28;20313;-60
2022/04/15 02:29:12;;;;;;;7.80;6.00;;;;;;;16.12;55.11;99816.06;4108565;28;20330;-60
2022/04/15 02:31:14;;;;;;;8.00;5.33;;;;;;;15.44;57.06;99864.66;4109557;28;20265;-59
2022/04/15 02:33:16;;;;;;;7.13;5.70;;;;;;;14.61;59.56;99906.72;4107909;28;20238;-59
2022/04/15 02:35:17;;;;;;;7.37;5.87;;;;;;;13.28;63.49;99945.09;4108257;28;20257;-60
2022/04/15 02:37:19;;;;;;;7.30;5.20;;;;;;;12.25;64.44;99951.84;4109560;28;20374;-59
2022/04/15 02:39:21;;;;;;;6.17;5.17;;;;;;;11.47;68.25;99894.34;4107725;28;20316;-59
2022/04/15 02:41:22;;;;;;;6.83;5.23;;;;;;;14.12;61.38;99787.63;4109023;28;20330;-60
2022/04/15 02:43:31;;;;;;;8.87;5.70;;;;;;;13.12;63.99;99890.75;4107515;28;20301;-60
2022/04/15 02:45:32;;;;;;;7.43;5.87;;;;;;;13.29;63.96;99853.31;4108141;28;20241;-60
2022/04/15 02:47:34;;;;;;;8.70;5.80;;;;;;;13.27;63.86;99828.63;4107535;28;20242;-60
2022/04/15 02:49:36;;;;;;;8.47;6.63;;;;;;;13.53;62.93;99836.31;4108346;28;20277;-59
2022/04/15 02:51:38;;;;;;;8.53;5.90;;;;;;;14.25;61.57;99774.47;4106838;28;20231;-59
2022/04/15 02:53:40;;;;;;;7.37;6.53;;;;;;;14.07;61.22;99816.75;4106291;28;20750;-60
2022/04/15 02:55:41;;;;;;;7.97;6.73;;;;;;;13.85;62.19;99850.50;4109473;28;20630;-59
2022/04/15 02:57:43;;;;;;;7.27;6.40;;;;;;;14.62;59.85;99780.75;4106259;28;20269;-60
2022/04/15 02:59:44;;;;;;;9.53;6.07;;;;;;;15.27;58.13;99732.75;4106249;28;20313;-60
2022/04/15 03:01:48;;;;;;;7.13;5.97;;;;;;;14.58;59.71;99822.28;4105433;28;20314;-60
2022/04/15 03:03:49;;;;;;;8.30;6.23;;;;;;;14.57;60.23;99827.81;4105738;28;20749;-58
2022/04/15 03:05:51;;;;;;;9.10;6.37;;;;;;;14.28;60.54;99858.88;4109402;28;20277;-60
2022/04/15 03:07:53;;;;;;;8.20;6.03;;;;;;;14.79;59.31;99793.97;4109061;28;20297;-60
2022/04/15 03:09:54;;;;;;;7.97;6.10;;;;;;;14.47;60.23;99846.81;4107156;28;20246;-58
2022/04/15 03:11:56;;;;;;;11.83;6.13;;;;;;;14.49;59.84;99839.44;4108692;28;20333;-60
2022/04/15 03:13:58;;;;;;;8.37;6.07;;;;;;;14.94;58.67;99773.38;4108277;28;20661;-61
2022/04/15 03:16:00;;;;;;;7.63;6.43;;;;;;;13.91;61.66;99882.69;4107132;28;20258;-60
2022/04/15 03:18:01;;;;;;;8.20;6.90;;;;;;;13.42;63.32;99890.16;4105705;28;20243;-60
2022/04/15 03:20:07;;;;;;;9.93;6.40;;;;;;;13.37;63.97;99855.94;4109476;28;20285;-60
2022/04/15 03:22:09;;;;;;;9.57;6.20;;;;;;;13.39;63.69;99853.91;4108096;28;20265;-60
2022/04/15 03:24:11;;;;;;;7.87;6.57;;;;;;;14.77;59.90;99737.97;4108511;28;20690;-60
2022/04/15 03:26:13;;;;;;;9.77;6.73;;;;;;;13.88;62.07;99856.31;4108923;28;20242;-60
2022/04/15 03:28:15;;;;;;;7.90;6.30;;;;;;;13.72;62.63;99846.56;4105302;28;20667;-60
2022/04/15 03:30:17;;;;;;;8.77;6.90;;;;;;;13.62;62.76;99874.50;4109093;28;20258;-60
2022/04/15 03:32:19;;;;;;;8.57;6.60;;;;;;;13.54;63.41;99876.22;4103733;28;20234;-60
2022/04/15 03:34:20;;;;;;;9.23;6.00;;;;;;;13.77;63.37;99856.72;4108437;28;20317;-60
2022/04/15 03:36:22;;;;;;;12.73;6.43;;;;;;;13.44;64.35;99874.78;4109212;28;20687;-60
2022/04/15 03:38:24;;;;;;;11.27;6.67;;;;;;;13.67;63.58;99854.28;4104724;28;20326;-60
2022/04/15 03:40:25;;;;;;;8.63;6.77;;;;;;;13.48;64.94;99868.06;4095035;28;20262;-60
2022/04/15 03:42:27;;;;;;;7.70;6.33;;;;;;;13.15;65.16;99890.41;4106345;28;20712;-60
2022/04/15 03:44:28;;;;;;;9.73;6.70;;;;;;;12.99;65.56;99891.31;4106267;28;20234;-60
2022/04/15 03:46:31;;;;;;;7.73;6.53;;;;;;;13.15;64.99;99860.22;4109138;28;20254;-60
2022/04/15 03:48:33;;;;;;;7.50;6.70;;;;;;;13.24;64.87;99853.81;4111622;28;20313;-60
2022/04/15 03:50:34;;;;;;;8.50;6.40;;;;;;;13.39;64.13;99859.25;4108646;28;20274;-60
2022/04/15 03:52:45;;;;;;;8.33;6.77;;;;;;;13.55;63.60;99853.00;4109683;28;20714;-60
2022/04/15 03:54:47;;;;;;;7.40;6.00;;;;;;;14.61;60.20;99743.47;4122691;28;20292;-60
2022/04/15 03:56:49;;;;;;;8.60;6.47;;;;;;;14.94;59.48;99751.13;4110279;28;20330;-60
2022/04/15 03:58:51;;;;;;;11.33;6.83;;;;;;;15.30;58.26;99734.22;4110479;28;20307;-60
2022/04/15 04:00:55;;;;;;;8.77;6.57;;;;;;;14.92;59.21;99793.31;4109088;28;20243;-60
2022/04/15 04:02:57;;;;;;;10.73;7.20;;;;;;;15.39;57.99;99744.63;4110180;28;20355;-59
2022/04/15 04:04:59;;;;;;;9.53;6.77;;;;;;;14.50;60.64;99841.91;4106604;28;20226;-61
2022/04/15 04:07:00;;;;;;;11.50;7.23;;;;;;;14.92;59.42;99782.59;4107968;28;20242;-60
2022/04/15 04:09:02;;;;;;;10.37;7.20;;;;;;;15.32;58.64;99770.53;4107937;28;20326;-60
2022/04/15 04:11:04;;;;;;;10.97;7.10;;;;;;;15.29;58.71;99765.56;4111010;28;20238;-60
2022/04/15 04:13:06;;;;;;;11.20;8.13;;;;;;;15.02;59.72;99807.25;4107833;28;20273;-60
2022/04/15 04:15:10;;;;;;;11.00;7.70;;;;;;;15.04;59.45;99800.69;4111619;28;20239;-60
2022/04/15 04:17:11;;;;;;;8.90;7.43;;;;;;;13.65;64.12;99922.25;4110846;28;20237;-61
2022/04/15 04:19:13;;;;;;;11.27;7.97;;;;;;;14.24;62.43;99858.41;4108688;28;20256;-61
2022/04/15 04:21:15;;;;;;;10.90;8.20;;;;;;;14.27;62.22;99866.03;4110719;28;20343;-60
2022/04/15 04:23:17;;;;;;;11.07;8.37;;;;;;;13.87;63.92;99894.75;4110877;28;20715;-60
2022/04/15 04:25:18;;;;;;;10.67;7.50;;;;;;;13.93;63.29;99887.88;4111036;28;20258;-60
2022/04/15 04:27:20;;;;;;;8.47;7.50;;;;;;;13.44;64.58;99929.00;4109149;28;20280;-61
2022/04/15 04:29:22;;;;;;;11.53;7.80;;;;;;;13.84;64.19;99856.84;4108543;28;20234;-60
2022/04/15 04:31:23;;;;;;;11.73;8.17;;;;;;;13.28;65.41;99934.41;4110779;28;20306;-61
2022/04/15 04:33:25;;;;;;;9.20;7.93;;;;;;;14.08;62.14;99837.13;4108799;28;20300;-60
2022/04/15 04:35:27;;;;;;;10.43;8.50;;;;;;;14.95;59.28;99768.84;4111537;28;20257;-60
2022/04/15 04:37:29;;;;;;;12.53;9.17;;;;;;;15.26;59.06;99776.63;4110057;28;20230;-60
2022/04/15 04:39:31;;;;;;;11.90;9.00;;;;;;;14.22;62.73;99875.63;4107835;28;20254;-60
2022/04/15 04:41:32;;;;;;;13.07;9.20;;;;;;;15.80;58.06;99746.69;4109884;28;20258;-60
2022/04/15 04:43:34;;;;;;;11.03;8.87;;;;;;;15.44;59.14;99789.63;4108346;28;20676;-60
2022/04/15 04:45:36;;;;;;;18.30;9.53;;;;;;;15.89;57.74;99759.94;4108640;28;20263;-60
2022/04/15 04:47:43;;;;;;;11.43;8.87;;;;;;;15.97;57.53;99751.78;4110771;28;20329;-60
2022/04/15 04:49:44;;;;;;;11.43;9.40;;;;;;;15.99;57.23;99757.75;4109922;28;20250;-60
2022/04/15 04:51:46;;;;;;;14.93;9.80;;;;;;;16.02;57.58;99768.09;4111388;28;20266;-60
2022/04/15 04:53:48;;;;;;;12.93;9.43;;;;;;;15.89;58.05;99786.75;4106830;28;20273;-61
2022/04/15 04:55:49;;;;;;;13.93;9.83;;;;;;;15.94;57.99;99778.97;4123312;28;20325;-61
2022/04/15 04:57:51;;;;;;;12.53;10.00;;;;;;;15.81;58.04;99785.03;4110989;28;20318;-61
2022/04/15 04:59:52;;;;;;;14.67;10.50;;;;;;;15.92;57.93;99789.88;4105350;28;20262;-61
2022/04/15 05:01:54;;;;;;;13.60;9.47;;;;;;;15.72;58.20;99800.44;4106594;28;20242;-59
2022/04/15 05:03:56;;;;;;;13.60;10.90;;;;;;;15.80;58.43;99808.34;4107913;28;20266;-59
2022/04/15 05:05:57;;;;;;;17.17;11.40;;;;;;;15.93;58.35;99809.47;4110574;28;20238;-60
2022/04/15 05:07:59;;;;;;;13.93;11.03;;;;;;;15.99;57.57;99796.13;4107956;28;20331;-59
2022/04/15 05:10:02;;;;;;;12.37;10.50;;;;;;;15.92;57.68;99814.00;4106716;28;20680;-60
2022/04/15 05:12:04;;;;;;;13.50;11.27;;;;;;;15.86;57.59;99813.97;4110219;28;20261;-58
2022/04/15 05:14:05;;;;;;;12.07;10.77;;;;;;;15.76;57.89;99816.94;4109098;28;20234;-60
2022/04/15 05:16:07;;;;;;;13.80;11.10;;;;;;;15.63;58.35;99839.09;4107325;28;20262;-59
2022/04/15 05:18:08;;;;;;;15.53;10.87;;;;;;;15.71;58.03;99828.28;4110098;28;20703;-60
2022/04/15 05:20:10;;;;;;;14.57;10.57;;;;;;;15.55;58.79;99856.09;4110667;28;20678;-60
2022/04/15 05:22:12;;;;;;;14.93;10.30;;;;;;;15.74;58.78;99846.66;4124411;28;20305;-60
2022/04/15 05:24:14;;;;;;;11.73;9.73;;;;;;;15.42;59.25;99861.28;4104529;28;20715;-60
2022/04/15 05:26:16;;;;;;;12.83;10.83;;;;;;;14.89;60.94;99937.25;4109296;28;20309;-60
2022/04/15 05:28:18;;;;;;;14.03;10.50;;;;;;;14.79;61.55;99944.69;4109860;28;20672;-61
2022/04/15 05:30:19;;;;;;;14.47;11.10;;;;;;;15.58;59.20;99839.63;4109872;28;20227;-60
2022/04/15 05:32:22;;;;;;;13.53;11.03;;;;;;;15.48;59.09;99857.06;4110216;28;20253;-60
2022/04/15 05:34:24;;;;;;;11.40;10.20;;;;;;;14.10;63.77;99992.84;4107567;28;20941;-60
2022/04/15 05:36:25;;;;;;;14.27;10.93;;;;;;;15.11;60.90;99888.31;4116547;28;20253;-60
2022/04/15 05:38:27;;;;;;;11.30;10.10;;;;;;;15.36;60.50;99854.03;4109053;28;20226;-59
2022/04/15 05:40:29;;;;;;;13.77;9.90;;;;;;;15.47;59.79;99853.53;4109810;28;20827;-59
2022/04/15 05:42:31;;;;;;;13.50;10.53;;;;;;;15.19;60.14;99877.53;4107755;28;20258;-61
2022/04/15 05:44:32;;;;;;;14.20;10.37;;;;;;;15.67;59.29;99842.25;4105220;28;20310;-59
2022/04/15 05:46:37;;;;;;;13.70;9.80;;;;;;;15.63;59.43;99850.66;4109117;28;20238;-60
2022/04/15 05:48:39;;;;;;;11.03;9.60;;;;;;;14.57;62.69;99965.09;4109747;28;20226;-60
2022/04/15 05:50:41;;;;;;;11.37;10.03;;;;;;;13.05;67.61;100057.94;4107474;28;20483;-59
2022/04/15 05:52:42;;;;;;;10.87;9.47;;;;;;;14.82;62.41;99879.28;4105328;28;20696;-59
2022/04/15 05:54:44;;;;;;;12.43;10.30;;;;;;;15.64;59.67;99827.34;4103331;28;20289;-60
2022/04/15 05:56:47;;;;;;;11.53;10.33;;;;;;;14.88;61.46;99930.25;4108648;28;20678;-58
2022/04/15 05:58:48;;;;;;;13.67;10.70;;;;;;;15.74;59.02;99837.75;4107359;28;20234;-60
2022/04/15 06:00:50;;;;;;;14.33;10.20;;;;;;;16.00;57.92;99838.03;4107304;28;20266;-61
2022/04/15 06:02:51;;;;;;;12.97;10.70;;;;;;;16.13;58.10;99836.47;4108347;28;20273;-60
2022/04/15 06:04:55;;;;;;;15.87;10.57;;;;;;;15.74;59.19;99865.44;4103912;28;20231;-58
2022/04/15 06:06:57;;;;;;;14.50;10.60;;;;;;;15.06;61.04;99937.91;4109563;28;20258;-60
2022/04/15 06:08:58;;;;;;;12.10;10.27;;;;;;;15.38;60.18;99898.34;4104989;28;20239;-61
2022/04/15 06:11:00;;;;;;;12.40;9.67;;;;;;;14.70;63.02;99976.03;4109880;28;20234;-60
2022/04/15 06:13:08;;;;;;;14.33;11.17;;;;;;;15.23;61.71;99900.22;4107456;28;20483;-61
2022/04/15 06:15:14;;;;;;;13.80;10.97;;;;;;;15.29;61.05;99899.50;4109075;28;20349;-60
2022/04/15 06:17:22;;;;;;;13.10;11.40;;;;;;;15.09;62.66;99914.47;4109584;28;20503;-61
2022/04/15 06:19:23;;;;;;;14.93;12.37;;;;;;;15.24;63.04;99917.97;4107543;28;20257;-61
2022/04/15 06:21:26;;;;;;;14.97;11.93;;;;;;;15.24;63.29;99907.25;4109785;28;20250;-61
2022/04/15 06:23:27;;;;;;;13.73;11.57;;;;;;;15.31;62.97;99910.84;4108550;28;20273;-60
2022/04/15 06:25:29;;;;;;;15.77;11.97;;;;;;;15.62;62.50;99858.84;4108472;28;20285;-60
2022/04/15 06:27:31;;;;;;;16.33;12.43;;;;;;;15.66;62.05;99889.66;4108443;28;20723;-61
2022/04/15 06:29:32;;;;;;;14.53;12.30;;;;;;;14.35;67.18;99992.72;4106819;28;20273;-60
2022/04/15 06:31:34;;;;;;;14.70;12.27;;;;;;;15.07;65.01;99912.78;4104076;28;20265;-60
2022/04/15 06:33:37;;;;;;;17.87;13.90;;;;;;;15.07;63.92;99931.53;4108885;28;20554;-61
2022/04/15 06:35:39;;;;;;;15.53;13.30;;;;;;;14.99;64.09;99910.19;4107636;28;20295;-61
2022/04/15 06:37:41;;;;;;;18.43;13.30;;;;;;;15.24;63.51;99896.53;4108393;28;20242;-61
2022/04/15 06:39:42;;;;;;;19.07;13.00;;;;;;;15.56;62.92;99873.03;4109286;28;20262;-60
2022/04/15 06:41:44;;;;;;;15.50;12.73;;;;;;;15.78;61.95;99877.41;4106779;28;20330;-60
2022/04/15 06:43:46;;;;;;;18.80;14.03;;;;;;;15.52;62.78;99863.69;4107339;28;20591;-61
2022/04/15 06:45:47;;;;;;;15.30;13.23;;;;;;;15.24;63.81;99917.97;4109179;28;20515;-60
2022/04/15 06:47:49;;;;;;;16.10;13.47;;;;;;;15.62;62.55;99882.97;4108490;28;20277;-59
2022/04/15 06:49:51;;;;;;;14.27;12.70;;;;;;;15.73;61.97;99874.47;4104992;28;20258;-60
2022/04/15 06:51:52;;;;;;;15.37;13.80;;;;;;;16.31;60.14;99844.06;4109466;28;20665;-61
2022/04/15 06:53:54;;;;;;;13.83;12.07;;;;;;;16.40;60.27;99845.59;4106617;28;20638;-60
2022/04/15 06:55:56;;;;;;;14.80;12.43;;;;;;;15.52;62.23;99904.69;4108937;28;20313;-60
2022/04/15 06:57:58;;;;;;;14.30;12.77;;;;;;;15.46;62.92;99929.59;4106104;28;20270;-60
2022/04/15 07:00:00;;;;;;;15.17;12.50;;;;;;;15.76;62.04;99905.41;4104377;28;20318;-59
2022/04/15 07:02:01;;;;;;;14.83;12.27;;;;;;;16.06;60.93;99865.91;4109550;28;20237;-60
2022/04/15 07:04:03;;;;;;;17.43;13.70;;;;;;;16.39;59.95;99869.94;4108545;28;20230;-60
2022/04/15 07:06:05;;;;;;;16.00;13.07;;;;;;;16.74;59.15;99858.22;4108854;28;20238;-61
2022/04/15 07:08:10;;;;;;;20.00;14.10;;;;;;;15.90;60.76;99883.09;4106836;28;20267;-60
2022/04/15 07:10:12;;;;;;;14.93;13.33;;;;;;;15.57;61.84;99918.38;4107553;28;20313;-60
2022/04/15 07:12:13;;;;;;;16.20;14.33;;;;;;;15.57;62.35;99936.31;4104526;28;20619;-60
2022/04/15 07:14:15;;;;;;;15.73;13.47;;;;;;;15.78;62.01;99920.31;4108151;28;20235;-59
2022/04/15 07:16:17;;;;;;;16.67;14.27;;;;;;;16.20;61.02;99888.34;4108731;28;20230;-59
2022/04/15 07:18:19;;;;;;;16.03;14.13;;;;;;;15.76;61.88;99916.16;4105839;28;20269;-61
2022/04/15 07:20:20;;;;;;;18.97;15.27;;;;;;;16.22;59.66;99890.84;4110432;28;20256;-60
2022/04/15 07:22:22;;;;;;;18.40;14.67;;;;;;;16.10;59.54;99902.06;4112436;28;20253;-61
2022/04/15 07:24:24;;;;;;;17.20;14.57;;;;;;;15.83;60.10;99906.34;4111486;28;20751;-60
2022/04/15 07:26:25;;;;;;;17.70;15.20;;;;;;;15.45;63.76;99963.56;4112031;28;20230;-60
2022/04/15 07:28:27;;;;;;;17.43;14.27;;;;;;;16.16;60.93;99897.78;4111261;28;20592;-59
2022/04/15 07:30:29;;;;;;;15.90;14.10;;;;;;;16.62;59.21;99893.84;4112132;28;20268;-60
2022/04/15 07:32:31;;;;;;;19.80;14.97;;;;;;;16.00;60.41;99897.03;4112680;28;20231;-60
2022/04/15 07:34:34;;;;;;;23.23;15.73;;;;;;;15.69;61.37;99931.31;4110775;28;20254;-59
2022/04/15 07:38:37;;;;;;;17.67;15.40;;;;;;;16.10;60.17;99888.66;4111612;28;20219;-60
2022/04/15 07:40:39;;;;;;;17.93;14.57;;;;;;;16.23;61.01;99904.03;4110301;28;20245;-60
2022/04/15 07:42:41;;;;;;;20.40;15.67;;;;;;;15.89;60.15;99915.47;4109656;28;20237;-60
2022/04/15 07:44:44;;;;;;;19.47;16.60;;;;;;;16.40;59.22;99910.00;4111732;28;20227;-59
2022/04/15 07:46:46;;;;;;;20.47;16.33;;;;;;;17.08;57.04;99902.22;4105518;28;20245;-60
2022/04/15 07:48:48;;;;;;;21.63;16.17;;;;;;;16.73;58.45;99899.53;4106478;28;20267;-59
2022/04/15 07:50:50;;;;;;;19.30;16.50;;;;;;;16.24;58.44;99913.75;4120823;28;20284;-60
2022/04/15 07:52:56;;;;;;;19.07;16.03;;;;;;;16.38;58.78;99938.84;4111315;28;20270;-60
2022/04/15 07:54:58;;;;;;;19.20;16.57;;;;;;;16.72;57.73;99907.78;4107777;28;20239;-60
2022/04/15 07:57:01;;;;;;;20.57;17.17;;;;;;;16.68;57.63;99903.81;4110914;28;20719;-60
2022/04/15 07:59:03;;;;;;;18.43;16.53;;;;;;;16.46;58.04;99911.88;4108509;28;20569;-59
2022/04/15 08:01:06;;;;;;;19.00;17.00;;;;;;;16.89;57.12;99895.72;4109877;28;20669;-59
2022/04/15 08:03:08;;;;;;;18.00;15.47;;;;;;;16.36;58.32;99933.66;4110267;28;20284;-59
2022/04/15 08:05:10;;;;;;;19.37;16.27;;;;;;;16.82;57.25;99905.59;4110112;28;20282;-60
2022/04/15 08:07:12;;;;;;;18.70;15.20;;;;;;;16.61;58.35;99919.88;4111623;28;20707;-59
2022/04/15 08:09:13;;;;;;;18.93;14.80;;;;;;;16.93;57.66;99923.00;4109317;28;20330;-60
2022/04/15 08:11:16;;;;;;;15.97;14.27;;;;;;;17.02;57.31;99919.13;4110513;28;20268;-60
2022/04/15 08:13:18;;;;;;;16.93;15.17;;;;;;;17.15;56.76;99909.50;4108068;28;20266;-59
2022/04/15 08:15:20;;;;;;;17.53;15.03;;;;;;;16.69;56.97;99905.50;4107817;28;20766;-60
2022/04/15 08:17:21;;;;;;;16.90;14.70;;;;;;;17.00;57.70;99926.56;4107458;28;20669;-60
2022/04/15 08:19:24;;;;;;;17.90;15.10;;;;;;;16.78;57.49;99935.72;4109146;28;20281;-60
2022/04/15 08:21:26;;;;;;;17.87;15.30;;;;;;;17.15;57.01;99914.88;4111829;28;20645;-59
2022/04/15 08:23:27;;;;;;;16.83;14.83;;;;;;;17.41;56.43;99898.91;4107764;28;20239;-59
2022/04/15 08:25:30;;;;;;;21.03;14.17;;;;;;;17.22;57.02;99919.25;4108948;28;20266;-60
2022/04/15 08:27:32;;;;;;;20.53;14.83;;;;;;;16.78;57.95;99931.16;4104754;28;20230;-60
2022/04/15 08:29:35;;;;;;;17.70;13.67;;;;;;;17.34;57.54;99911.47;4111110;28;20846;-61
2022/04/15 08:31:36;;;;;;;17.93;13.93;;;;;;;17.08;57.37;99896.03;4109878;28;20238;-59
2022/04/15 08:33:39;;;;;;;15.80;13.67;;;;;;;17.29;57.80;99917.47;4110326;28;20227;-59
2022/04/15 08:35:40;;;;;;;16.57;14.10;;;;;;;17.58;56.51;99904.78;4111755;28;20246;-60
2022/04/15 08:37:42;;;;;;;16.07;13.13;;;;;;;17.85;56.35;99902.13;4110281;28;20491;-60
2022/04/15 08:39:44;;;;;;;16.40;13.47;;;;;;;17.75;56.18;99891.78;4111817;28;20321;-60
2022/04/15 08:41:46;;;;;;;17.63;14.10;;;;;;;17.67;56.57;99898.16;4110803;28;20781;-61
2022/04/15 08:43:49;;;;;;;17.43;14.73;;;;;;;17.50;56.81;99887.97;4106793;28;20267;-60
2022/04/15 08:45:50;;;;;;;17.53;14.37;;;;;;;17.87;56.14;99899.25;4107527;28;20270;-59
2022/04/15 08:48:02;;;;;;;17.77;13.07;;;;;;;17.84;55.83;99898.63;4110184;28;20242;-60
2022/04/15 08:50:06;;;;;;;16.60;14.37;;;;;;;18.08;55.11;99895.59;4109801;28;20242;-61
2022/04/15 08:52:12;;;;;;;15.97;13.77;;;;;;;17.88;56.15;99917.06;4110948;28;20230;-61
2022/04/15 08:54:13;;;;;;;15.67;13.60;;;;;;;18.03;55.37;99875.47;4106865;28;20528;-61
2022/04/15 08:56:15;;;;;;;16.50;13.67;;;;;;;18.49;54.80;99894.59;4109888;28;20720;-61
2022/04/15 08:58:17;;;;;;;16.17;14.33;;;;;;;17.92;56.74;99886.00;4108717;28;20277;-60
2022/04/15 09:00:19;;;;;;;15.20;13.60;;;;;;;17.91;55.09;99874.44;4108559;28;20241;-61
2022/04/15 09:02:39;;;;;;;15.80;14.17;;;;;;;16.87;58.05;99958.69;4110499;28;20254;-61
2022/04/15 09:04:46;;;;;;;16.20;13.83;;;;;;;17.65;56.46;99923.63;4109271;28;20640;-60
2022/04/15 09:07:02;;;;;;;15.57;13.83;;;;;;;18.20;55.07;99892.09;4110333;28;20261;-59
2022/04/15 09:09:11;;;;;;;16.97;13.90;;;;;;;18.39;54.93;99889.59;4108609;28;20290;-60
2022/04/15 09:11:13;;;;;;;17.57;13.97;;;;;;;17.94;56.35;99905.50;4110438;28;20280;-60
2022/04/15 09:13:20;;;;;;;14.97;13.20;;;;;;;16.51;59.44;99986.50;4107590;28;20258;-61
2022/04/15 09:15:22;;;;;;;15.93;13.17;;;;;;;18.23;56.27;99898.13;4109652;28;20624;-60
2022/04/15 09:17:24;;;;;;;17.10;13.60;;;;;;;18.02;56.37;99900.75;4105530;28;20366;-61
2022/04/15 09:19:25;;;;;;;15.93;12.90;;;;;;;18.55;56.19;99889.19;4109403;28;20249;-60
2022/04/15 09:21:28;;;;;;;17.00;13.50;;;;;;;18.84;56.02;99873.63;4110984;28;20253;-60
2022/04/15 09:23:29;;;;;;;18.13;15.83;;;;;;;18.13;54.91;99893.13;4108420;28;20597;-60
2022/04/15 09:25:32;;;;;;;17.03;14.77;;;;;;;16.92;58.32;99962.47;4108882;28;20280;-60
2022/04/15 09:27:35;;;;;;;19.60;15.73;;;;;;;15.73;59.73;100037.19;4106967;28;20242;-61
2022/04/15 09:29:39;;;;;;;17.80;14.67;;;;;;;18.19;55.37;99895.81;4107388;28;20317;-60